Time;durP1;ratioP1;P1;durP2;ratioP2;P2;SDS_P1;SDS_P2;PMS_P1;PMS_P2;Temp;Humidity;BMP_temperature;BMP_pressure;BME280_temperature;BME280_humidity;BME280_pressure;Samples;Min_cycle;Max_cycle;Signal;HPM_P1;HPM_P2
2022/04/30 00:00:44;;;;;;;5.68;2.03;;;;;13.90;102793.00;;;;5059830;28;20317;-79
2022/04/30 00:03:11;;;;;;;2.28;1.98;;;;;13.90;102795.00;;;;5057217;28;20203;-79
2022/04/30 00:05:40;;;;;;;4.53;1.83;;;;;13.90;102809.00;;;;5053477;28;20198;-80
2022/04/30 00:08:08;;;;;;;2.50;1.85;;;;;13.90;102795.00;;;;5054496;28;20195;-80
2022/04/30 00:10:38;;;;;;;2.03;1.70;;;;;13.80;102791.00;;;;5052142;28;20215;-80
2022/04/30 00:13:07;;;;;;;3.97;2.25;;;;;13.80;102795.00;;;;5041267;28;20200;-81
2022/04/30 00:15:34;;;;;;;3.33;1.50;;;;;13.80;102791.00;;;;5045953;28;20895;-80
2022/04/30 00:18:02;;;;;;;4.13;1.80;;;;;13.80;102794.00;;;;5051928;28;20192;-79
2022/04/30 00:20:30;;;;;;;2.53;2.00;;;;;13.80;102785.00;;;;5040868;28;20216;-80
2022/04/30 00:22:58;;;;;;;3.40;2.10;;;;;13.80;102785.00;;;;5056521;28;20199;-80
2022/04/30 00:25:26;;;;;;;2.58;1.98;;;;;13.80;102791.00;;;;5058967;28;20188;-80
2022/04/30 00:27:53;;;;;;;3.25;1.83;;;;;13.70;102790.00;;;;5048251;28;20226;-80
2022/04/30 00:30:20;;;;;;;3.42;2.30;;;;;13.70;102790.00;;;;5039744;28;20227;-81
2022/04/30 00:32:49;;;;;;;3.35;1.83;;;;;13.70;102788.00;;;;5045564;28;20199;-80
2022/04/30 00:35:17;;;;;;;2.33;2.08;;;;;13.70;102784.00;;;;5049966;28;20196;-81
2022/04/30 00:37:44;;;;;;;3.67;2.55;;;;;13.70;102786.00;;;;5054067;28;20228;-80
2022/04/30 00:40:13;;;;;;;3.33;2.30;;;;;13.60;102780.00;;;;5053674;28;20270;-80
2022/04/30 00:42:40;;;;;;;4.13;1.75;;;;;13.60;102771.00;;;;5039418;28;20235;-80
2022/04/30 00:45:10;;;;;;;3.90;2.35;;;;;13.60;102776.00;;;;5056746;28;20230;-81
2022/04/30 00:47:37;;;;;;;3.83;2.05;;;;;13.60;102766.00;;;;5038998;28;20821;-80
2022/04/30 00:50:05;;;;;;;3.50;2.22;;;;;13.60;102768.00;;;;5053644;28;20195;-80
2022/04/30 00:52:34;;;;;;;7.10;2.40;;;;;13.60;102759.00;;;;5044569;28;20199;-80
2022/04/30 00:55:03;;;;;;;3.97;2.28;;;;;13.60;102764.00;;;;5056849;28;20204;-80
2022/04/30 00:57:33;;;;;;;3.47;2.00;;;;;13.60;102764.00;;;;5056842;28;20214;-80
2022/04/30 01:00:02;;;;;;;3.33;2.22;;;;;13.50;102770.00;;;;5044817;28;20227;-81
2022/04/30 01:02:30;;;;;;;3.72;2.38;;;;;13.50;102767.00;;;;5063852;28;20222;-80
2022/04/30 01:04:58;;;;;;;2.70;2.03;;;;;13.50;102764.00;;;;5057253;28;20198;-80
2022/04/30 01:07:28;;;;;;;3.90;2.55;;;;;13.50;102764.00;;;;5058425;28;20208;-80
2022/04/30 01:09:56;;;;;;;5.47;2.47;;;;;13.50;102763.00;;;;5051835;28;20557;-80
2022/04/30 01:12:24;;;;;;;4.45;2.40;;;;;13.50;102758.00;;;;5060560;28;20234;-80
2022/04/30 01:14:56;;;;;;;3.63;2.10;;;;;13.40;102761.00;;;;5046973;28;20528;-80
2022/04/30 01:17:23;;;;;;;3.17;2.08;;;;;13.40;102763.00;;;;5058137;28;20203;-80
2022/04/30 01:19:53;;;;;;;2.55;2.17;;;;;13.40;102763.00;;;;5059047;28;20195;-80
2022/04/30 01:22:25;;;;;;;4.55;2.85;;;;;13.30;102762.00;;;;5064461;28;20289;-80
2022/04/30 01:24:57;;;;;;;3.08;2.08;;;;;13.30;102764.00;;;;5051349;28;20204;-80
2022/04/30 01:27:26;;;;;;;5.15;2.33;;;;;13.30;102757.00;;;;5046905;28;20196;-80
2022/04/30 01:29:56;;;;;;;3.38;1.95;;;;;13.30;102749.00;;;;5063335;28;20228;-80
2022/04/30 01:38:01;;;;;;;3.10;1.95;;;;;13.20;102740.00;;;;5053563;28;20255;-79
2022/04/30 01:40:32;;;;;;;4.90;2.15;;;;;13.10;102738.00;;;;5053504;28;20647;-79
2022/04/30 01:43:01;;;;;;;4.00;2.40;;;;;13.10;102743.00;;;;5041240;28;20235;-80
2022/04/30 01:45:29;;;;;;;2.55;1.95;;;;;13.10;102738.00;;;;5043341;28;20203;-80
2022/04/30 01:48:00;;;;;;;3.90;2.33;;;;;13.10;102740.00;;;;5055138;28;20249;-80
2022/04/30 01:50:28;;;;;;;3.08;1.95;;;;;13.00;102738.00;;;;5056258;28;20223;-80
2022/04/30 01:52:55;;;;;;;4.32;2.40;;;;;13.00;102740.00;;;;5043642;28;20203;-79
2022/04/30 01:55:22;;;;;;;4.22;2.22;;;;;13.00;102730.00;;;;5053303;28;20192;-80
2022/04/30 01:57:51;;;;;;;2.80;1.98;;;;;12.90;102733.00;;;;5056510;28;20215;-80
2022/04/30 02:00:20;;;;;;;3.25;2.53;;;;;12.90;102729.00;;;;5042836;28;20198;-80
2022/04/30 02:02:49;;;;;;;4.15;2.00;;;;;12.90;102721.00;;;;5048922;28;20220;-79
2022/04/30 02:05:20;;;;;;;3.63;1.90;;;;;12.80;102728.00;;;;5057576;28;20200;-80
2022/04/30 02:07:52;;;;;;;8.20;2.33;;;;;12.80;102725.00;;;;5058517;28;20203;-80
2022/04/30 02:10:21;;;;;;;5.25;1.80;;;;;12.80;102728.00;;;;5058930;28;20195;-79
2022/04/30 02:12:51;;;;;;;3.67;2.20;;;;;12.70;102717.00;;;;5064447;28;20202;-79
2022/04/30 02:15:19;;;;;;;3.00;2.15;;;;;12.70;102723.00;;;;5065621;28;20585;-79
2022/04/30 02:17:47;;;;;;;3.95;2.42;;;;;12.70;102718.00;;;;5051819;28;20215;-79
2022/04/30 02:20:21;;;;;;;2.83;2.13;;;;;12.60;102722.00;;;;5048441;28;20200;-80
2022/04/30 02:22:51;;;;;;;3.85;1.92;;;;;12.60;102720.00;;;;5048712;28;20223;-78
2022/04/30 02:25:19;;;;;;;4.22;2.17;;;;;12.50;102717.00;;;;5051276;28;20202;-79
2022/04/30 02:27:48;;;;;;;2.95;1.77;;;;;12.50;102717.00;;;;5064297;28;20200;-79
2022/04/30 02:30:18;;;;;;;3.33;2.33;;;;;12.40;102716.00;;;;5065790;28;20211;-79
2022/04/30 02:32:48;;;;;;;3.28;2.00;;;;;12.40;102710.00;;;;5062243;28;20203;-79
2022/04/30 02:35:18;;;;;;;3.10;2.40;;;;;12.30;102711.00;;;;5059073;28;20202;-79
2022/04/30 02:37:49;;;;;;;3.30;2.13;;;;;12.30;102703.00;;;;5053914;28;20228;-79
2022/04/30 02:40:17;;;;;;;2.17;1.88;;;;;12.30;102702.00;;;;5038279;28;20245;-79
2022/04/30 02:42:45;;;;;;;2.58;2.03;;;;;12.20;102703.00;;;;5037382;28;20231;-79
2022/04/30 02:45:13;;;;;;;3.22;2.03;;;;;12.20;102699.00;;;;5038957;28;20207;-79
2022/04/30 02:47:43;;;;;;;3.17;2.13;;;;;12.10;102698.00;;;;5043848;28;20234;-79
2022/04/30 02:50:13;;;;;;;2.88;2.03;;;;;12.10;102700.00;;;;5058561;28;20192;-80
2022/04/30 02:52:42;;;;;;;3.30;2.55;;;;;12.00;102696.00;;;;5056343;28;20203;-79
2022/04/30 02:55:11;;;;;;;2.65;1.98;;;;;12.00;102687.00;;;;5048662;28;20699;-79
2022/04/30 02:59:53;;;;;;;2.28;1.88;;;;;11.90;102700.00;;;;5046167;28;20227;-79
2022/04/30 03:00:34;;;;;;;3.95;2.10;;;;;11.90;102696.00;;;;5052413;28;20262;-79
2022/04/30 03:03:03;;;;;;;3.85;2.30;;;;;11.80;102694.00;;;;5058802;28;20223;-79
2022/04/30 03:05:30;;;;;;;3.00;1.98;;;;;11.80;102689.00;;;;5041901;28;20678;-80
2022/04/30 03:07:59;;;;;;;3.15;1.95;;;;;11.80;102683.00;;;;5048013;28;20204;-80
2022/04/30 03:10:27;;;;;;;4.07;2.17;;;;;11.70;102691.00;;;;5057519;28;20219;-79
2022/04/30 03:12:54;;;;;;;2.80;1.88;;;;;11.70;102689.00;;;;5052472;28;20200;-79
2022/04/30 03:15:22;;;;;;;5.22;2.10;;;;;11.70;102683.00;;;;5055266;28;20207;-79
2022/04/30 03:23:21;;;;;;;2.80;2.13;;;;;11.50;102676.00;;;;5050671;28;21113;-81
2022/04/30 03:25:48;;;;;;;3.15;2.00;;;;;11.50;102683.00;;;;5041833;28;20624;-79
2022/04/30 03:28:16;;;;;;;4.10;2.60;;;;;11.40;102679.00;;;;5051813;28;20257;-79
2022/04/30 03:30:46;;;;;;;3.42;2.35;;;;;11.40;102676.00;;;;5055451;28;20585;-79
2022/04/30 03:33:13;;;;;;;3.95;2.58;;;;;11.40;102673.00;;;;5048799;28;20200;-79
2022/04/30 03:35:42;;;;;;;2.50;2.08;;;;;11.30;102675.00;;;;5035226;28;20200;-79
2022/04/30 03:38:10;;;;;;;5.32;2.83;;;;;11.30;102665.00;;;;5042429;28;20274;-80
2022/04/30 03:40:39;;;;;;;4.28;2.08;;;;;11.30;102668.00;;;;5045080;28;20223;-79
2022/04/30 03:43:07;;;;;;;4.10;3.00;;;;;11.20;102662.00;;;;5036386;28;20256;-80
2022/04/30 03:45:36;;;;;;;5.00;2.28;;;;;11.20;102664.00;;;;5039175;28;20243;-79
2022/04/30 03:48:04;;;;;;;2.95;2.35;;;;;11.20;102658.00;;;;5053272;28;20265;-80
2022/04/30 03:50:31;;;;;;;3.22;2.22;;;;;11.20;102648.00;;;;5036132;28;20199;-79
2022/04/30 03:53:00;;;;;;;4.32;2.42;;;;;11.10;102657.00;;;;5052995;28;20195;-79
2022/04/30 03:55:29;;;;;;;2.97;2.15;;;;;11.10;102650.00;;;;5052547;28;20203;-79
2022/04/30 03:57:56;;;;;;;3.95;2.08;;;;;11.10;102647.00;;;;5049254;28;20195;-79
2022/04/30 04:00:24;;;;;;;5.07;2.60;;;;;11.10;102650.00;;;;5039204;28;20615;-79
2022/04/30 04:02:52;;;;;;;3.42;2.42;;;;;11.10;102655.00;;;;5039345;28;20672;-80
2022/04/30 04:05:19;;;;;;;3.75;2.60;;;;;11.00;102639.00;;;;5042326;28;20199;-79
2022/04/30 04:07:46;;;;;;;3.85;2.58;;;;;11.00;102645.00;;;;5045790;28;20204;-79
2022/04/30 04:10:15;;;;;;;5.53;2.65;;;;;10.90;102647.00;;;;5042806;28;20249;-80
2022/04/30 04:12:42;;;;;;;3.25;2.40;;;;;10.90;102651.00;;;;5042645;28;20554;-79
2022/04/30 04:17:58;;;;;;;2.78;2.25;;;;;10.90;102656.00;;;;5043765;28;20195;-79
2022/04/30 04:20:25;;;;;;;5.10;2.20;;;;;10.90;102652.00;;;;5042058;28;20195;-79
2022/04/30 04:22:53;;;;;;;6.22;3.00;;;;;10.80;102653.00;;;;5036155;28;20258;-80
2022/04/30 04:28:07;;;;;;;4.00;2.58;;;;;10.80;102654.00;;;;5046478;28;20608;-79
2022/04/30 04:30:35;;;;;;;4.68;2.42;;;;;10.80;102655.00;;;;5042822;28;20196;-79
2022/04/30 04:33:03;;;;;;;3.38;2.28;;;;;10.70;102660.00;;;;5053023;28;20249;-80
2022/04/30 04:35:31;;;;;;;5.20;2.40;;;;;10.70;102661.00;;;;5058279;28;20234;-80
2022/04/30 04:37:59;;;;;;;3.33;2.60;;;;;10.70;102660.00;;;;5045229;28;20242;-80
2022/04/30 04:40:28;;;;;;;2.63;2.08;;;;;10.70;102657.00;;;;5047320;28;20213;-79
2022/04/30 04:42:55;;;;;;;3.17;2.50;;;;;10.70;102663.00;;;;5048376;28;20310;-79
2022/04/30 04:45:26;;;;;;;3.33;2.53;;;;;10.70;102658.00;;;;5057010;28;20191;-80
2022/04/30 04:47:54;;;;;;;6.05;2.67;;;;;10.70;102655.00;;;;5041739;28;20277;-79
2022/04/30 04:50:26;;;;;;;3.30;2.28;;;;;10.70;102659.00;;;;5047916;28;20203;-79
2022/04/30 04:52:55;;;;;;;2.72;1.85;;;;;10.70;102664.00;;;;5054130;28;20572;-80
2022/04/30 04:55:22;;;;;;;4.50;2.80;;;;;10.70;102677.00;;;;5041402;28;20211;-79
2022/04/30 04:57:51;;;;;;;3.33;2.50;;;;;10.70;102678.00;;;;5047631;28;20204;-79
2022/04/30 05:00:18;;;;;;;5.30;2.63;;;;;10.80;102682.00;;;;5051428;28;20211;-79
2022/04/30 05:02:46;;;;;;;4.55;3.38;;;;;10.80;102687.00;;;;5053351;28;20273;-80
2022/04/30 05:05:13;;;;;;;4.10;2.30;;;;;10.80;102679.00;;;;5053938;28;20207;-79
2022/04/30 05:07:40;;;;;;;3.85;2.40;;;;;10.80;102689.00;;;;5040789;28;21257;-81
2022/04/30 05:10:08;;;;;;;5.38;2.22;;;;;10.90;102690.00;;;;5058281;28;20195;-79
2022/04/30 05:12:35;;;;;;;2.95;2.28;;;;;10.90;102682.00;;;;5068569;28;20212;-80
2022/04/30 05:15:05;;;;;;;3.65;2.65;;;;;11.00;102686.00;;;;5068625;28;20191;-80
2022/04/30 05:17:32;;;;;;;3.40;2.25;;;;;11.00;102682.00;;;;5068455;28;20200;-81
2022/04/30 05:19:59;;;;;;;3.28;2.35;;;;;11.10;102687.00;;;;5050475;28;20246;-80
2022/04/30 05:22:27;;;;;;;5.05;2.72;;;;;11.10;102694.00;;;;5049942;28;20223;-80
2022/04/30 05:24:56;;;;;;;3.13;2.28;;;;;11.20;102689.00;;;;5051544;28;20196;-80
2022/04/30 05:27:29;;;;;;;4.35;2.60;;;;;11.20;102685.00;;;;5049467;28;20253;-80
2022/04/30 05:29:56;;;;;;;3.50;2.45;;;;;11.30;102692.00;;;;5050587;28;20195;-80
2022/04/30 05:32:25;;;;;;;2.65;2.38;;;;;11.30;102694.00;;;;5033820;28;20643;-79
2022/04/30 05:34:52;;;;;;;3.15;2.55;;;;;11.40;102690.00;;;;5046754;28;20399;-78
2022/04/30 05:37:19;;;;;;;4.78;2.72;;;;;11.50;102692.00;;;;5044402;28;20274;-79
2022/04/30 05:39:46;;;;;;;3.25;2.45;;;;;11.60;102693.00;;;;5035688;28;20585;-79
2022/04/30 05:42:14;;;;;;;3.70;2.65;;;;;11.60;102693.00;;;;5042699;28;20229;-79
2022/04/30 05:44:41;;;;;;;3.50;2.72;;;;;11.70;102697.00;;;;5050247;28;20199;-79
2022/04/30 05:47:08;;;;;;;3.40;2.30;;;;;11.80;102697.00;;;;5047300;28;20200;-79
2022/04/30 05:49:37;;;;;;;3.53;2.65;;;;;11.80;102694.00;;;;5043215;28;20192;-79
2022/04/30 05:52:05;;;;;;;4.32;2.47;;;;;11.90;102689.00;;;;5032419;28;20218;-79
2022/04/30 05:54:34;;;;;;;5.32;2.92;;;;;12.00;102687.00;;;;5036919;28;20200;-79
2022/04/30 05:57:02;;;;;;;5.30;2.53;;;;;12.00;102682.00;;;;5039785;28;20437;-79
2022/04/30 05:59:29;;;;;;;3.90;2.63;;;;;12.10;102679.00;;;;5038574;28;20243;-79
2022/04/30 06:01:57;;;;;;;3.08;2.35;;;;;12.20;102688.00;;;;5042101;28;20282;-79
2022/04/30 06:04:25;;;;;;;5.22;3.45;;;;;12.30;102689.00;;;;5037867;28;20547;-79
2022/04/30 06:06:54;;;;;;;2.90;2.30;;;;;12.30;102687.00;;;;5039829;28;20200;-79
2022/04/30 06:09:25;;;;;;;6.78;3.28;;;;;12.40;102686.00;;;;5037252;28;20356;-81
2022/04/30 06:11:53;;;;;;;2.65;2.35;;;;;12.50;102694.00;;;;5041275;28;20199;-79
2022/04/30 06:14:21;;;;;;;3.05;2.42;;;;;12.60;102686.00;;;;5042374;28;20206;-80
2022/04/30 06:16:50;;;;;;;3.40;3.08;;;;;12.70;102685.00;;;;5040858;28;20577;-79
2022/04/30 06:19:17;;;;;;;3.60;2.55;;;;;12.80;102690.00;;;;5041949;28;20650;-80
2022/04/30 06:21:45;;;;;;;4.00;3.15;;;;;12.80;102688.00;;;;5043469;28;20975;-80
2022/04/30 06:24:14;;;;;;;4.18;2.75;;;;;12.90;102690.00;;;;5043636;28;20216;-80
2022/04/30 06:26:43;;;;;;;4.38;3.35;;;;;13.00;102695.00;;;;5044279;28;20204;-80
2022/04/30 06:29:11;;;;;;;5.13;3.03;;;;;13.10;102701.00;;;;5042878;28;21128;-80
2022/04/30 06:31:41;;;;;;;4.97;3.17;;;;;13.20;102700.00;;;;5042070;28;20208;-80
2022/04/30 06:34:09;;;;;;;3.30;2.88;;;;;13.30;102703.00;;;;5043481;28;20204;-78
2022/04/30 06:36:38;;;;;;;3.78;2.80;;;;;13.40;102694.00;;;;5036702;28;20681;-79
2022/04/30 06:39:06;;;;;;;3.58;2.38;;;;;13.50;102696.00;;;;5037074;28;20233;-80
2022/04/30 06:41:37;;;;;;;3.97;3.10;;;;;13.60;102701.00;;;;5041416;28;20187;-80
2022/04/30 06:44:08;;;;;;;3.45;2.50;;;;;13.70;102695.00;;;;5039312;28;20220;-79
2022/04/30 06:46:35;;;;;;;5.85;2.90;;;;;13.80;102699.00;;;;5041123;28;20206;-80
2022/04/30 06:49:05;;;;;;;5.00;3.28;;;;;13.80;102693.00;;;;5044141;28;20688;-80
2022/04/30 06:51:32;;;;;;;5.40;3.08;;;;;13.90;102702.00;;;;5037434;28;20204;-79
2022/04/30 06:57:14;;;;;;;4.72;2.80;;;;;14.10;102692.00;;;;5036009;28;20219;-80
2022/04/30 06:59:45;;;;;;;4.03;3.28;;;;;14.30;102692.00;;;;5042443;28;20282;-80
2022/04/30 07:02:17;;;;;;;3.20;2.65;;;;;14.40;102696.00;;;;5036380;28;20207;-80
2022/04/30 07:04:48;;;;;;;3.95;2.70;;;;;14.50;102687.00;;;;5046449;28;20199;-79
2022/04/30 07:07:17;;;;;;;3.28;2.63;;;;;14.60;102685.00;;;;5036128;28;20282;-80
2022/04/30 07:09:45;;;;;;;4.18;2.67;;;;;14.70;102685.00;;;;5045323;28;20296;-80
2022/04/30 07:12:17;;;;;;;4.35;3.25;;;;;14.80;102684.00;;;;5047039;28;20715;-79
2022/04/30 07:14:46;;;;;;;3.83;3.00;;;;;14.90;102685.00;;;;5049128;28;20203;-80
2022/04/30 07:17:14;;;;;;;3.00;2.30;;;;;15.00;102686.00;;;;5043665;28;20188;-79
2022/04/30 07:19:45;;;;;;;6.72;2.85;;;;;15.20;102687.00;;;;5048806;28;20756;-80
2022/04/30 07:22:13;;;;;;;3.58;2.22;;;;;15.30;102681.00;;;;5040693;28;20208;-80
2022/04/30 07:24:42;;;;;;;3.67;2.42;;;;;15.40;102690.00;;;;5043730;28;20835;-80
2022/04/30 07:27:10;;;;;;;3.60;2.45;;;;;15.50;102690.00;;;;5040753;28;20253;-79
2022/04/30 07:29:39;;;;;;;4.32;2.78;;;;;15.70;102686.00;;;;5041969;28;20288;-79
2022/04/30 07:32:08;;;;;;;3.08;2.38;;;;;15.80;102691.00;;;;5035893;28;20227;-78
2022/04/30 07:34:35;;;;;;;3.55;2.58;;;;;16.00;102689.00;;;;5041001;28;20239;-79
2022/04/30 07:37:03;;;;;;;3.33;2.60;;;;;16.00;102691.00;;;;5031091;28;20220;-80
2022/04/30 07:39:30;;;;;;;3.30;2.35;;;;;16.10;102689.00;;;;5037736;28;20740;-80
2022/04/30 07:41:58;;;;;;;3.70;2.45;;;;;16.20;102692.00;;;;5039414;28;20484;-79
2022/04/30 07:44:29;;;;;;;2.78;2.20;;;;;16.20;102685.00;;;;5051418;28;20223;-77
2022/04/30 07:46:58;;;;;;;3.10;2.40;;;;;16.30;102688.00;;;;5036771;28;20262;-79
2022/04/30 07:49:26;;;;;;;3.65;2.65;;;;;16.40;102689.00;;;;5047335;28;20211;-78
2022/04/30 07:51:56;;;;;;;3.03;2.40;;;;;16.50;102689.00;;;;5043439;28;20210;-80
2022/04/30 07:54:23;;;;;;;4.10;2.80;;;;;16.60;102674.00;;;;5035432;28;20724;-80
2022/04/30 07:56:53;;;;;;;2.20;1.80;;;;;16.70;102677.00;;;;5046192;28;20214;-79
2022/04/30 07:59:21;;;;;;;3.28;2.70;;;;;16.80;102680.00;;;;5047185;28;21187;-79
2022/04/30 08:01:48;;;;;;;2.95;2.60;;;;;17.00;102678.00;;;;5033154;28;20287;-79
2022/04/30 08:04:17;;;;;;;4.68;2.60;;;;;17.10;102677.00;;;;5043690;28;20241;-80
2022/04/30 08:06:44;;;;;;;3.42;2.50;;;;;17.20;102677.00;;;;5044709;28;20203;-80
2022/04/30 08:09:11;;;;;;;3.47;2.40;;;;;17.30;102673.00;;;;5041514;28;20545;-79
2022/04/30 08:11:40;;;;;;;3.47;2.17;;;;;17.40;102677.00;;;;5042797;28;20198;-80
2022/04/30 08:14:07;;;;;;;2.78;2.28;;;;;17.50;102677.00;;;;5045784;28;20203;-79
2022/04/30 08:16:34;;;;;;;2.47;2.25;;;;;17.60;102673.00;;;;5051852;28;20282;-80
2022/04/30 08:19:01;;;;;;;2.42;2.10;;;;;17.70;102669.00;;;;5050319;28;20621;-79
2022/04/30 08:21:30;;;;;;;2.85;1.80;;;;;17.80;102675.00;;;;5041730;28;20227;-79
2022/04/30 08:23:57;;;;;;;2.58;2.25;;;;;17.90;102674.00;;;;5048981;28;20227;-79
2022/04/30 08:26:25;;;;;;;2.22;2.00;;;;;18.00;102671.00;;;;5043438;28;20192;-79
2022/04/30 08:28:52;;;;;;;7.68;1.90;;;;;18.10;102666.00;;;;5045915;28;20200;-76
2022/04/30 08:31:19;;;;;;;2.33;2.00;;;;;18.20;102667.00;;;;5040896;28;20647;-80
2022/04/30 08:33:46;;;;;;;2.35;1.80;;;;;18.40;102668.00;;;;5049965;28;20195;-76
2022/04/30 08:36:14;;;;;;;1.92;1.73;;;;;18.50;102666.00;;;;5066784;28;20577;-78
2022/04/30 08:38:43;;;;;;;2.33;1.70;;;;;18.50;102667.00;;;;5039452;28;20315;-79
2022/04/30 08:41:11;;;;;;;2.00;1.70;;;;;18.60;102661.00;;;;5053791;28;20200;-78
2022/04/30 08:43:40;;;;;;;1.63;1.52;;;;;18.60;102667.00;;;;5044655;28;20228;-80
2022/04/30 08:46:07;;;;;;;2.20;1.75;;;;;18.70;102665.00;;;;5047190;28;20200;-79
2022/04/30 08:48:35;;;;;;;2.78;1.90;;;;;18.70;102661.00;;;;5056351;28;20207;-76
2022/04/30 08:51:03;;;;;;;1.60;1.50;;;;;18.80;102657.00;;;;5046664;28;20594;-77
2022/04/30 08:53:30;;;;;;;2.05;1.80;;;;;18.80;102658.00;;;;5039365;28;20254;-77
2022/04/30 08:56:00;;;;;;;3.47;1.92;;;;;18.80;102658.00;;;;5044982;28;20211;-77
2022/04/30 08:58:27;;;;;;;2.13;1.48;;;;;18.90;102652.00;;;;5046340;28;20457;-76
2022/04/30 09:00:55;;;;;;;3.47;1.58;;;;;18.90;102654.00;;;;5050012;28;20261;-77
2022/04/30 09:03:22;;;;;;;1.85;1.63;;;;;18.90;102652.00;;;;5022646;28;20605;-77
2022/04/30 09:05:50;;;;;;;1.58;1.48;;;;;19.00;102651.00;;;;5042023;28;20208;-77
2022/04/30 09:08:17;;;;;;;2.70;1.70;;;;;19.10;102652.00;;;;5039887;28;20197;-77
2022/04/30 09:10:45;;;;;;;2.50;1.70;;;;;19.10;102650.00;;;;5042981;28;20918;-77
2022/04/30 09:13:16;;;;;;;2.78;2.08;;;;;19.20;102646.00;;;;5043451;28;20253;-77
2022/04/30 09:15:45;;;;;;;3.15;2.08;;;;;19.20;102642.00;;;;5041973;28;20204;-78
2022/04/30 09:18:13;;;;;;;2.55;1.85;;;;;19.30;102639.00;;;;5048521;28;20654;-77
2022/04/30 09:20:45;;;;;;;2.42;1.92;;;;;19.30;102638.00;;;;5041888;28;20200;-78
2022/04/30 09:23:23;;;;;;;3.88;1.85;;;;;19.40;102642.00;;;;5042848;28;20250;-77
2022/04/30 09:25:53;;;;;;;1.88;1.63;;;;;19.40;102641.00;;;;5044340;28;20235;-77
2022/04/30 09:28:26;;;;;;;6.78;2.22;;;;;19.40;102639.00;;;;5048617;28;20189;-78
2022/04/30 09:31:06;;;;;;;2.03;1.67;;;;;19.40;102635.00;;;;5045987;28;20195;-77
2022/04/30 09:33:34;;;;;;;4.50;1.73;;;;;19.40;102630.00;;;;5042975;28;20187;-77
2022/04/30 09:38:51;;;;;;;1.95;1.40;;;;;19.40;102639.00;;;;5046875;28;20285;-77
2022/04/30 09:41:23;;;;;;;1.60;1.50;;;;;19.40;102628.00;;;;5046134;28;20192;-77
2022/04/30 09:44:04;;;;;;;2.03;1.40;;;;;19.30;102627.00;;;;5048499;28;20222;-78
2022/04/30 09:46:33;;;;;;;2.58;1.83;;;;;19.40;102630.00;;;;5043537;28;20222;-78
2022/04/30 09:54:33;;;;;;;1.70;1.40;;;;;19.30;102623.00;;;;5040874;28;20222;-78
2022/04/30 09:57:01;;;;;;;1.67;1.55;;;;;19.30;102623.00;;;;5041632;28;20197;-77
2022/04/30 09:59:34;;;;;;;2.95;1.60;;;;;19.30;102627.00;;;;5043016;28;20197;-78
2022/04/30 10:02:06;;;;;;;3.47;1.65;;;;;19.40;102621.00;;;;5042791;28;20187;-77
2022/04/30 10:04:34;;;;;;;4.47;1.70;;;;;19.40;102625.00;;;;5046847;28;20287;-77
2022/04/30 10:07:03;;;;;;;2.97;1.80;;;;;19.40;102618.00;;;;5049425;28;20195;-77
2022/04/30 10:09:35;;;;;;;1.77;1.25;;;;;19.40;102614.00;;;;5045714;28;20200;-77
2022/04/30 10:12:08;;;;;;;2.75;1.90;;;;;19.50;102616.00;;;;5046125;28;20198;-77
2022/04/30 10:14:47;;;;;;;2.15;1.50;;;;;19.50;102613.00;;;;5052629;28;20192;-77
2022/04/30 10:17:17;;;;;;;2.30;1.90;;;;;19.50;102611.00;;;;5047946;28;20199;-78
2022/04/30 10:19:46;;;;;;;3.08;1.67;;;;;19.50;102615.00;;;;5059618;28;20204;-78
2022/04/30 10:22:16;;;;;;;3.88;2.20;;;;;19.40;102613.00;;;;5056149;28;20191;-77
2022/04/30 10:24:48;;;;;;;2.95;2.00;;;;;19.30;102613.00;;;;5045638;28;20219;-80
2022/04/30 10:27:16;;;;;;;3.78;2.00;;;;;19.20;102609.00;;;;5044024;28;20200;-77
2022/04/30 10:29:58;;;;;;;2.95;2.00;;;;;19.00;102613.00;;;;5051927;28;20225;-77
2022/04/30 10:32:30;;;;;;;2.35;1.85;;;;;19.00;102611.00;;;;5049419;28;20196;-77
2022/04/30 10:34:58;;;;;;;3.97;1.98;;;;;18.90;102617.00;;;;5057952;28;20215;-76
2022/04/30 10:37:33;;;;;;;2.40;2.20;;;;;18.80;102612.00;;;;5059859;28;20234;-77
2022/04/30 10:40:01;;;;;;;2.10;1.80;;;;;18.80;102614.00;;;;5047257;28;20216;-77
2022/04/30 10:42:30;;;;;;;3.67;1.77;;;;;18.80;102604.00;;;;5053213;28;20188;-76
2022/04/30 10:44:59;;;;;;;1.95;1.58;;;;;18.70;102609.00;;;;5043469;28;20601;-77
2022/04/30 10:47:26;;;;;;;4.28;1.83;;;;;18.70;102602.00;;;;5043953;28;20201;-77
2022/04/30 10:49:55;;;;;;;3.55;1.90;;;;;18.60;102595.00;;;;5048347;28;20199;-76
2022/04/30 10:52:24;;;;;;;2.63;1.90;;;;;18.60;102600.00;;;;5051848;28;20268;-76
2022/04/30 10:54:54;;;;;;;2.00;1.80;;;;;18.50;102598.00;;;;5052351;28;20199;-77
2022/04/30 10:57:21;;;;;;;3.30;2.25;;;;;18.50;102594.00;;;;5052179;28;20256;-77
2022/04/30 11:00:01;;;;;;;3.25;1.75;;;;;18.40;102593.00;;;;5046888;28;20222;-76
2022/04/30 11:02:32;;;;;;;2.60;1.70;;;;;18.40;102602.00;;;;5060215;28;20222;-76
2022/04/30 11:05:00;;;;;;;2.25;1.75;;;;;18.30;102593.00;;;;5060634;28;20220;-76
2022/04/30 11:07:30;;;;;;;1.80;1.38;;;;;18.30;102592.00;;;;5051358;28;20192;-77
2022/04/30 11:09:58;;;;;;;2.47;1.92;;;;;18.30;102589.00;;;;5046250;28;20256;-77
2022/04/30 11:12:31;;;;;;;2.05;1.52;;;;;18.30;102588.00;;;;5050656;28;20195;-77
2022/04/30 11:15:00;;;;;;;1.90;1.80;;;;;18.30;102586.00;;;;5045347;28;20227;-77
2022/04/30 11:17:27;;;;;;;2.13;1.77;;;;;18.30;102585.00;;;;5040300;28;20202;-77
2022/04/30 11:19:55;;;;;;;2.38;1.88;;;;;18.30;102590.00;;;;5062060;28;20203;-77
2022/04/30 11:22:23;;;;;;;2.30;1.55;;;;;18.30;102597.00;;;;5058709;28;21466;-77
2022/04/30 11:24:56;;;;;;;2.38;1.77;;;;;18.30;102585.00;;;;5058188;28;20222;-76
2022/04/30 11:27:24;;;;;;;2.65;1.38;;;;;18.30;102586.00;;;;5046448;28;20195;-77
2022/04/30 11:29:55;;;;;;;5.78;1.98;;;;;18.30;102578.00;;;;5033996;28;20204;-78
2022/04/30 11:32:26;;;;;;;2.20;1.83;;;;;18.40;102587.00;;;;5029121;28;20287;-76
2022/04/30 11:34:56;;;;;;;3.08;1.80;;;;;18.40;102581.00;;;;5028810;28;20278;-77
2022/04/30 11:37:24;;;;;;;4.18;2.00;;;;;18.40;102581.00;;;;5036935;28;20232;-78
2022/04/30 11:39:51;;;;;;;1.95;1.55;;;;;18.50;102570.00;;;;5028293;28;20208;-77
2022/04/30 11:42:18;;;;;;;1.95;1.55;;;;;18.50;102573.00;;;;5035959;28;20612;-76
2022/04/30 11:44:45;;;;;;;2.20;1.77;;;;;18.50;102567.00;;;;5034818;28;20227;-76
2022/04/30 11:47:12;;;;;;;2.40;1.70;;;;;18.60;102570.00;;;;5030741;28;20211;-76
2022/04/30 11:49:42;;;;;;;2.92;1.92;;;;;18.60;102568.00;;;;5037349;28;20262;-76
2022/04/30 11:52:10;;;;;;;2.33;1.67;;;;;18.70;102570.00;;;;5028627;28;20203;-76
2022/04/30 11:54:39;;;;;;;3.03;1.67;;;;;18.80;102568.00;;;;5027919;28;20208;-76
2022/04/30 11:57:06;;;;;;;1.98;1.35;;;;;18.80;102566.00;;;;5028699;28;20223;-76
2022/04/30 11:59:37;;;;;;;2.15;1.88;;;;;18.90;102564.00;;;;5039419;28;20203;-75
2022/04/30 12:02:05;;;;;;;3.28;1.65;;;;;18.90;102561.00;;;;5039597;28;20290;-75
2022/04/30 12:04:34;;;;;;;2.78;2.00;;;;;19.00;102560.00;;;;5036712;28;20231;-76
2022/04/30 12:07:06;;;;;;;1.75;1.50;;;;;19.00;102562.00;;;;5036434;28;20215;-75
2022/04/30 12:09:37;;;;;;;2.00;1.20;;;;;19.10;102556.00;;;;5033587;28;20207;-76
2022/04/30 12:12:17;;;;;;;2.33;1.30;;;;;19.10;102557.00;;;;5033366;28;20208;-75
2022/04/30 12:14:45;;;;;;;2.42;1.45;;;;;19.20;102558.00;;;;5035773;28;20196;-75
2022/04/30 12:17:12;;;;;;;1.98;1.00;;;;;19.20;102555.00;;;;5035968;28;20299;-75
2022/04/30 12:25:29;;;;;;;1.48;1.25;;;;;19.00;102558.00;;;;4942487;29;20629;-75
2022/04/30 12:27:58;;;;;;;1.80;1.40;;;;;19.00;102550.00;;;;4943242;28;20214;-75
2022/04/30 12:30:25;;;;;;;1.88;1.35;;;;;18.90;102555.00;;;;4980538;28;20586;-75
2022/04/30 12:32:54;;;;;;;3.03;1.40;;;;;18.90;102548.00;;;;5029920;28;20196;-75
2022/04/30 12:35:26;;;;;;;1.73;1.40;;;;;18.90;102545.00;;;;5036600;28;20200;-74
2022/04/30 12:38:05;;;;;;;1.80;1.23;;;;;18.80;102548.00;;;;5040232;28;20224;-75
2022/04/30 12:40:35;;;;;;;1.73;1.45;;;;;18.90;102540.00;;;;5037874;28;20697;-77
2022/04/30 12:43:05;;;;;;;1.85;1.45;;;;;18.90;102543.00;;;;5035173;28;20192;-75
2022/04/30 12:45:33;;;;;;;2.00;1.30;;;;;18.90;102543.00;;;;5032621;28;20233;-76
2022/04/30 12:48:01;;;;;;;2.17;1.42;;;;;18.90;102534.00;;;;5031979;28;20196;-76
2022/04/30 12:50:29;;;;;;;5.65;1.65;;;;;18.80;102538.00;;;;5033803;28;20327;-74